INFORMACIÓN METAR y TAF
METAR FOR LIRQ
ADDS - METARS form results

(0937 UTC 03 December 2021)
Data provider http://aviationweather.gov/metar/data/
 
METAR text: LIRQ 030920Z VRB03KT CAVOK 11/04 Q1009
Conditions at: LIRQ (FIRENZE/PERETOLA, IT) observed 0920 UTC 03 December 2021
Temperature: 11.0°C (52°F)
Dewpoint: 4.0°C (39°F) [RH = 62%]
Pressure (altimeter): 29.79 inches Hg (1009.0 mb)
Winds: variable direction winds at 3 MPH (3 knots; 1.5 m/s)
Visibility: 6 or more miles (10+ km)
Ceiling: ceiling and visibility are OK
Clouds: unknown
Weather: no significant weather observed at this time

METAR text: LIRQ 030850Z VRB02KT 9999 FEW060 10/04 Q1008
Conditions at: LIRQ (FIRENZE/PERETOLA, IT) observed 0850 UTC 03 December 2021
Temperature: 10.0°C (50°F)
Dewpoint: 4.0°C (39°F) [RH = 66%]
Pressure (altimeter): 29.76 inches Hg (1008.0 mb)
Winds: variable direction winds at 2 MPH (2 knots; 1.0 m/s)
Visibility: 6 or more miles (10+ km)
Ceiling: at least 12,000 feet AGL
Clouds: few clouds at 6000 feet AGL
Weather: no significant weather observed at this time

Forecast for: LIRQ (FIRENZE/PERETOLA, IT)
Text: TAF LIRQ 030500Z 0306/0406 03010KT 9999 SCT030
Forecast period: 0600 to 2100 UTC 03 December 2021
Forecast type: FROM: standard forecast or significant change
Winds: from the NNE (30 degrees) at 12 MPH (10 knots; 5.1 m/s)
Visibility: 6 or more miles (10+ km)
Ceiling: at least 12,000 feet AGL
Clouds: scattered clouds at 3000 feet AGL
Weather: no significant weather forecast for this period
Text: BECMG 0321/0323 VRB05KT
Forecast period: 2100 UTC 03 December 2021 to 0600 UTC 04 December 2021
Forecast type: BECOMING: Conditions expected to become as follows by 2300 UTC 03 December 2021
Winds: variable direction winds at 6 MPH (5 knots; 2.6 m/s)
Visibility: 6 or more miles (10+ km)
Ceiling: at least 12,000 feet AGL
Clouds: scattered clouds at 3000 feet AGL
Weather: no significant weather forecast for this period

 MAPA DE AEROPUERTO

 INFORMACIÓN DE PISTA
Pista 05 Longitud 5425 ft Ancho 98 ft
Elevación 123 ft Umbral desplazado 492 ft Rumbo de pista 48
Pista 23 Longitud 5425 ft Ancho 98 ft
Elevación 132 ft Umbral desplazado 2287 ft Rumbo de pista 228

 FRECUANCIAS DEL AEROPUERTO
Tipo APP Nombre APP Frecuencia 126.075 MHZ
Tipo ATIS Nombre ATIS Frecuencia 129.35 MHZ
Tipo TWR Nombre FIRENZE TW Frecuencia 118.3 MHZ

 RADIO AYUDAS DEL AEROPUERTO
Tipo VOR-DME Nombre Peretola Frecuencia 112500 KHZ



Powered by Virtual Airlines Manager [v2.6.2]